Pagrindinis puslapis
METAR-TAF:

METAR-TAF

Oro uostai :

Luganas, Šveicarija

platuma: 46-00N, ilguma: 008-58E, Aukštis: 273 m

Dabartinis oras

Ataskaita buvo paskelbta 37 minutes, ne 22:50 UTC
Vėjas 2 kt nuo kintamojo kryptimis
Temperatūra 9°C
Drėgmė 71%
Slėgis 1030 hPa
Matomumas 10 km arba daugiau
nėra debesų žemiau 1500 m ir nėra kamuolinių lietaus debesų

METAR: LSZA 072250Z AUTO VRB02KT CAVOK 09/04 Q1030

Laikas: 01:27 (23:27 UTC)

Prognozė

Ataskaita buvo paskelbta 9 valandos ir 2 minutes, ne 14:25 UTC
Prognozė galioja nuo 07 metu 15 UTC su 07 metu 24 UTC
Vėjas 4 kt iš Pietų
Matomumas 10 km arba daugiau
nėra debesų žemiau 1500 m ir nėra kamuolinių lietaus debesų
Laikinai
nuo 07 metu 15 UTC su 07 metu 18 UTC
Matomumas 10 km arba daugiau
Mažai debesys ne aukštis 9000 ft

TAF: LSZA 071425Z 0715/0724 19004KT CAVOK TEMPO 0715/0718 9999 FEW090

Orai ataskaitas ir orų prognozės (METAR, TAF).

turimą stotys yra geltonos ir raudonos taškus žemėlapyje.

Perkelti pele per norėdami pamatyti stoties vardą.

Tada spustelėkite, norėdami matyti oro stebėjimo ir prognozės.

Norėdami pakeisti žemėlapį: spustelėkite ant žalios mygtukų su juodo kryžiaus žemyn,; žalią mygtuką su brūkšneliu, jei norite nutolinti; arba žalių rodyklių gretimoms žemėlapius.


METAR-TAF: